Terminal Aerodrome Forecast
Issued by NWS

Home | Current Version | Previous Version | Text Only | Print | Product List | Glossary On
Versions: 1 2 3 4 5 6 7 8 9 10 11 12 13 14 15 16 17
005
FTUS44 KTSA 010520
TAFBVO
TAF
KBVO 010520Z 0106/0206 VRB03KT P6SM VCTS BKN013CB
      TEMPO 0106/0108 3SM TSRA BR BKN012CB
     FM010800 00000KT 4SM BR SCT013 BKN025
     FM011600 03005KT P6SM VCTS BKN030CB
      TEMPO 0120/0124 3SM TSRA BR BKN015CB
     FM020000 VRB03KT P6SM BKN250=

USA.gov is the U.S. government's official web portal to all federal, state and local government web resources and services.